createdAt,value
2017-07-27T00:01:07.092Z,73.00
2017-07-27T00:03:35.331Z,73.20
2017-07-27T00:06:03.645Z,73.70
2017-07-27T00:08:32.679Z,73.50
2017-07-27T00:11:00.933Z,73.40
2017-07-27T00:13:29.187Z,73.40
2017-07-27T00:15:58.242Z,73.80
2017-07-27T00:18:26.560Z,73.80
2017-07-27T00:20:54.842Z,73.30
2017-07-27T00:23:23.854Z,73.60
2017-07-27T00:25:52.896Z,73.80
2017-07-27T00:28:21.147Z,73.80
2017-07-27T00:30:49.390Z,75.20
2017-07-27T00:33:18.391Z,76.20
2017-07-27T00:35:47.496Z,77.40
2017-07-27T00:38:15.697Z,77.40
2017-07-27T00:40:43.980Z,77.80
2017-07-27T00:43:12.215Z,77.20
2017-07-27T00:45:41.242Z,79.20
2017-07-27T00:48:09.517Z,79.20
2017-07-27T00:50:37.787Z,79.80
2017-07-27T00:53:06.025Z,80.60
2017-07-27T00:55:34.304Z,80.60
2017-07-27T00:58:02.596Z,81.10
2017-07-27T01:00:31.614Z,81.60
2017-07-27T01:02:59.885Z,81.60
2017-07-27T01:05:28.142Z,81.70
2017-07-27T01:07:56.395Z,81.90
2017-07-27T01:10:24.675Z,81.50
2017-07-27T01:12:52.941Z,82.40
2017-07-27T01:15:21.211Z,82.90
2017-07-27T01:17:49.585Z,82.70
2017-07-27T01:20:18.713Z,82.70
2017-07-27T01:22:47.730Z,83.00
2017-07-27T01:25:16.751Z,82.30
2017-07-27T01:27:45.029Z,82.30
2017-07-27T01:30:13.582Z,82.50
2017-07-27T01:32:42.605Z,82.60
2017-07-27T01:35:10.860Z,82.50
2017-07-27T01:37:39.130Z,81.90
2017-07-27T01:40:07.386Z,82.00
2017-07-27T01:42:35.618Z,81.50
2017-07-27T01:45:03.910Z,81.10
2017-07-27T01:47:32.146Z,81.00
2017-07-27T01:50:00.400Z,81.90
2017-07-27T01:52:29.451Z,80.40
2017-07-27T01:54:57.673Z,80.40
2017-07-27T01:57:26.009Z,80.30
2017-07-27T01:59:54.302Z,80.60
2017-07-27T02:02:22.547Z,80.80
2017-07-27T02:04:50.818Z,80.30
2017-07-27T02:07:19.842Z,80.70
2017-07-27T02:09:48.087Z,80.60
2017-07-27T02:12:16.341Z,81.00
2017-07-27T02:14:45.357Z,81.40
2017-07-27T02:17:13.614Z,81.40
2017-07-27T02:19:41.874Z,81.60
2017-07-27T02:22:10.113Z,82.10
2017-07-27T02:24:38.358Z,82.30
2017-07-27T02:27:06.693Z,80.90
2017-07-27T02:29:34.910Z,80.50
2017-07-27T02:32:03.187Z,82.40
2017-07-27T02:34:31.437Z,81.80
2017-07-27T02:37:00.495Z,82.30
2017-07-27T02:39:28.753Z,82.30
2017-07-27T02:41:56.986Z,82.50
2017-07-27T02:44:25.993Z,82.30
2017-07-27T02:46:55.020Z,81.70
2017-07-27T02:49:23.777Z,82.20
2017-07-27T02:51:52.813Z,80.90
2017-07-27T02:54:21.086Z,80.90
2017-07-27T02:56:49.355Z,80.80
2017-07-27T02:59:17.605Z,80.90
2017-07-27T03:01:46.610Z,81.00
2017-07-27T03:04:14.869Z,81.00
2017-07-27T03:06:43.894Z,79.80
2017-07-27T03:09:12.155Z,79.80
2017-07-27T03:11:42.110Z,79.60
2017-07-27T03:14:10.327Z,79.60
2017-07-27T03:16:38.604Z,79.30
2017-07-27T03:19:07.644Z,80.60
2017-07-27T03:21:35.965Z,80.60
2017-07-27T03:24:04.246Z,80.60
2017-07-27T03:26:32.504Z,81.30
2017-07-27T03:29:00.767Z,81.40
2017-07-27T03:31:29.056Z,81.80
2017-07-27T03:33:57.294Z,81.70
2017-07-27T03:36:25.597Z,82.10
2017-07-27T03:38:53.838Z,82.00
2017-07-27T03:41:22.108Z,82.70
2017-07-27T03:43:51.115Z,82.80
2017-07-27T03:46:19.373Z,82.80
2017-07-27T03:48:48.391Z,82.40
2017-07-27T03:51:16.641Z,82.50
2017-07-27T03:53:45.675Z,82.30
2017-07-27T03:56:13.908Z,82.20
2017-07-27T03:58:42.187Z,82.40
2017-07-27T04:01:11.173Z,83.00
2017-07-27T04:03:40.225Z,82.90
2017-07-27T04:06:08.571Z,82.90
2017-07-27T04:08:37.572Z,82.90
2017-07-27T04:11:05.845Z,82.80
2017-07-27T04:13:34.855Z,82.40
2017-07-27T04:16:03.417Z,82.40
2017-07-27T04:18:32.441Z,82.50
2017-07-27T04:21:00.722Z,82.40
2017-07-27T04:23:29.015Z,82.70
2017-07-27T04:25:57.269Z,82.70
2017-07-27T04:28:25.508Z,82.90
2017-07-27T04:30:54.551Z,82.70
2017-07-27T04:33:22.785Z,82.70
2017-07-27T04:35:51.798Z,82.60
2017-07-27T04:38:20.062Z,82.60
2017-07-27T04:40:49.088Z,82.70
2017-07-27T04:43:17.329Z,82.70
2017-07-27T04:45:46.349Z,82.60
2017-07-27T04:48:14.595Z,82.60
2017-07-27T04:50:42.822Z,82.20
2017-07-27T04:53:11.105Z,81.70
2017-07-27T04:55:39.372Z,81.10
2017-07-27T04:58:07.597Z,81.40
2017-07-27T05:00:35.597Z,80.00
2017-07-27T05:03:03.605Z,79.80
2017-07-27T05:05:31.638Z,80.00
2017-07-27T05:07:59.619Z,80.90
2017-07-27T05:10:27.932Z,80.90
2017-07-27T05:12:55.938Z,80.30
2017-07-27T05:15:23.931Z,80.30
2017-07-27T05:17:51.938Z,80.90
2017-07-27T05:20:19.954Z,80.90
2017-07-27T05:22:47.971Z,81.00
2017-07-27T05:25:16.726Z,82.50
2017-07-27T05:27:44.762Z,81.80
2017-07-27T05:30:12.766Z,81.60
2017-07-27T05:32:40.786Z,81.70
2017-07-27T05:35:08.773Z,81.60
2017-07-27T05:37:36.770Z,81.50
2017-07-27T05:40:04.775Z,81.00
2017-07-27T05:42:33.556Z,81.10
2017-07-27T05:45:02.352Z,81.10
2017-07-27T05:47:30.325Z,81.10
2017-07-27T05:49:59.077Z,80.90
2017-07-27T05:52:27.086Z,80.90
2017-07-27T05:54:55.872Z,80.40
2017-07-27T05:57:23.905Z,80.40
2017-07-27T05:59:51.887Z,79.60
2017-07-27T06:02:19.930Z,78.50
2017-07-27T06:04:47.947Z,77.90
2017-07-27T06:07:15.955Z,76.90
2017-07-27T06:09:43.955Z,77.30
2017-07-27T06:12:11.979Z,77.10
2017-07-27T06:14:40.760Z,77.00
2017-07-27T06:17:09.541Z,77.30
2017-07-27T06:19:38.311Z,76.80
2017-07-27T06:22:06.330Z,76.80
2017-07-27T06:24:34.345Z,76.70
2017-07-27T06:27:02.365Z,76.00
2017-07-27T06:29:31.153Z,74.10
2017-07-27T06:31:59.175Z,74.10
2017-07-27T06:34:27.194Z,74.50
2017-07-27T06:36:55.198Z,73.90
2017-07-27T06:39:23.188Z,73.90
2017-07-27T06:41:51.203Z,72.90
2017-07-27T06:44:19.207Z,73.80
2017-07-27T06:46:47.214Z,73.20
2017-07-27T06:49:15.421Z,74.00
2017-07-27T06:51:43.455Z,73.40
2017-07-27T06:54:11.443Z,73.60
2017-07-27T06:56:39.453Z,74.30
2017-07-27T06:59:07.482Z,75.80
2017-07-27T07:01:35.487Z,76.20
2017-07-27T07:04:03.493Z,76.10
2017-07-27T07:06:31.478Z,77.10
2017-07-27T07:08:59.502Z,76.00
2017-07-27T07:11:27.518Z,75.00
2017-07-27T07:13:55.536Z,74.90
2017-07-27T07:16:24.316Z,73.80
2017-07-27T07:18:53.296Z,73.50
2017-07-27T07:21:23.923Z,73.50
2017-07-27T07:23:51.989Z,72.80
2017-07-27T07:26:20.008Z,73.20
2017-07-27T07:28:48.030Z,73.60
2017-07-27T07:31:16.025Z,72.40
2017-07-27T07:33:44.805Z,72.40
2017-07-27T07:36:12.822Z,72.40
2017-07-27T07:38:40.834Z,72.10
2017-07-27T07:41:09.626Z,72.40
2017-07-27T07:43:37.618Z,71.80
2017-07-27T07:46:05.658Z,71.70
2017-07-27T07:48:33.638Z,71.70
2017-07-27T07:51:01.669Z,70.80
2017-07-27T07:53:29.661Z,70.20
2017-07-27T07:55:57.722Z,69.60
2017-07-27T07:58:25.726Z,69.10
2017-07-27T08:00:54.513Z,70.80
2017-07-27T08:03:22.581Z,70.80
2017-07-27T08:05:51.366Z,71.80
2017-07-27T08:08:19.398Z,71.20
2017-07-27T08:10:47.401Z,71.00
2017-07-27T08:13:15.509Z,71.10
2017-07-27T08:15:43.495Z,70.70
2017-07-27T08:18:11.516Z,70.60
2017-07-27T08:20:39.526Z,70.00
2017-07-27T08:23:08.306Z,71.00
2017-07-27T08:25:36.309Z,71.00
2017-07-27T08:28:04.314Z,71.20
2017-07-27T08:30:32.369Z,70.30
2017-07-27T08:33:00.404Z,70.10
2017-07-27T08:35:29.291Z,69.10
2017-07-27T08:37:57.295Z,69.10
2017-07-27T08:40:25.296Z,68.50
2017-07-27T08:42:53.323Z,66.80
2017-07-27T08:45:21.338Z,68.30
2017-07-27T08:47:49.325Z,68.60
2017-07-27T08:50:17.318Z,67.90
2017-07-27T08:52:45.368Z,67.00
2017-07-27T08:55:13.438Z,66.60
2017-07-27T08:57:41.413Z,66.40
2017-07-27T09:00:09.426Z,67.40
2017-07-27T09:02:37.466Z,67.60
2017-07-27T09:05:05.924Z,66.60
2017-07-27T09:07:33.962Z,67.10
2017-07-27T09:10:01.961Z,66.40
2017-07-27T09:12:29.992Z,67.50
2017-07-27T09:14:57.978Z,67.70
2017-07-27T09:17:25.974Z,67.30
2017-07-27T09:19:54.002Z,67.10
2017-07-27T09:22:21.998Z,68.60
2017-07-27T09:24:50.034Z,69.40
2017-07-27T09:27:18.079Z,71.30
2017-07-27T09:29:46.243Z,75.10
2017-07-27T09:32:14.459Z,74.40
2017-07-27T09:34:42.512Z,74.00
2017-07-27T09:37:10.514Z,73.90
2017-07-27T09:39:38.511Z,74.50
2017-07-27T09:42:07.109Z,72.70
2017-07-27T09:44:35.218Z,74.20
2017-07-27T09:47:03.210Z,73.30
2017-07-27T09:49:31.215Z,74.60
2017-07-27T09:51:59.231Z,75.00
2017-07-27T09:54:27.254Z,72.60
2017-07-27T09:57:00.887Z,71.50
2017-07-27T09:59:28.910Z,69.20
2017-07-27T10:01:56.958Z,69.20
2017-07-27T10:04:24.994Z,68.20
2017-07-27T10:06:53.034Z,69.70
2017-07-27T10:09:21.080Z,71.00
2017-07-27T10:11:49.102Z,69.50
2017-07-27T10:14:17.108Z,68.50
2017-07-27T10:16:45.924Z,68.10
2017-07-27T10:19:13.932Z,68.00
2017-07-27T10:21:42.675Z,67.90
2017-07-27T10:24:10.746Z,67.80
2017-07-27T10:26:38.756Z,66.70
2017-07-27T10:29:06.759Z,67.50
2017-07-27T10:31:35.541Z,63.70
2017-07-27T10:34:03.554Z,63.60
2017-07-27T10:36:31.571Z,62.50
2017-07-27T10:38:59.585Z,61.60
2017-07-27T10:41:27.611Z,61.40
2017-07-27T10:43:55.658Z,60.80
2017-07-27T10:46:23.768Z,61.50
2017-07-27T10:48:51.782Z,59.60
2017-07-27T10:51:19.822Z,59.20
2017-07-27T10:53:47.843Z,59.50
2017-07-27T10:56:15.870Z,59.70
2017-07-27T10:58:44.735Z,58.80
2017-07-27T11:01:12.794Z,58.80
2017-07-27T11:03:40.802Z,57.60
2017-07-27T11:06:09.596Z,58.20
2017-07-27T11:08:38.380Z,57.60
2017-07-27T11:11:06.389Z,57.50
2017-07-27T11:13:34.402Z,56.70
2017-07-27T11:16:02.445Z,56.80
2017-07-27T11:18:30.438Z,57.20
2017-07-27T11:20:58.481Z,57.20
2017-07-27T11:23:26.583Z,57.10
2017-07-27T11:25:54.590Z,59.70
2017-07-27T11:28:23.381Z,60.50
2017-07-27T11:30:51.415Z,60.50
2017-07-27T11:33:19.414Z,61.10
2017-07-27T11:35:48.626Z,59.50
2017-07-27T11:38:16.633Z,59.40
2017-07-27T11:40:44.637Z,57.70
2017-07-27T11:43:13.455Z,56.60
2017-07-27T11:45:41.486Z,56.50
2017-07-27T11:48:09.525Z,55.40
2017-07-27T11:50:37.518Z,56.10
2017-07-27T11:53:05.578Z,53.70
2017-07-27T11:55:33.575Z,52.10
2017-07-27T11:58:01.640Z,51.60
2017-07-27T12:00:29.689Z,52.70
2017-07-27T12:02:57.717Z,51.80
2017-07-27T12:05:26.502Z,51.90
2017-07-27T12:07:55.316Z,51.20
2017-07-27T12:10:23.374Z,51.20
2017-07-27T12:12:51.369Z,49.70
2017-07-27T12:15:19.425Z,49.50
2017-07-27T12:17:47.455Z,51.40
2017-07-27T12:20:15.482Z,51.90
2017-07-27T12:22:43.482Z,52.00
2017-07-27T12:25:11.517Z,52.30
2017-07-27T12:27:39.558Z,50.40
2017-07-27T12:30:07.621Z,49.10
2017-07-27T12:32:35.614Z,49.50
2017-07-27T12:35:05.637Z,49.90
2017-07-27T12:37:33.847Z,49.90
2017-07-27T12:40:01.891Z,49.70
2017-07-27T12:42:29.877Z,49.00
2017-07-27T12:44:57.883Z,49.40
2017-07-27T12:47:25.904Z,48.90
2017-07-27T12:49:53.928Z,50.00
2017-07-27T12:52:21.942Z,51.20
2017-07-27T12:54:49.985Z,51.70
2017-07-27T12:57:18.009Z,51.60
2017-07-27T12:59:46.023Z,51.70
2017-07-27T13:02:14.820Z,51.70
2017-07-27T13:04:42.851Z,51.20
2017-07-27T13:07:10.858Z,53.60
2017-07-27T13:09:38.922Z,51.90
2017-07-27T13:12:06.913Z,49.70
2017-07-27T13:14:34.995Z,51.80
2017-07-27T13:17:03.062Z,50.70
2017-07-27T13:19:31.974Z,50.60
2017-07-27T13:22:00.026Z,50.60
2017-07-27T13:24:28.046Z,51.70
2017-07-27T13:26:56.085Z,48.70
2017-07-27T13:29:24.115Z,50.30
2017-07-27T13:31:52.127Z,50.30
2017-07-27T13:34:20.143Z,51.70
2017-07-27T13:36:48.133Z,49.50
2017-07-27T13:39:16.200Z,48.90
2017-07-27T13:41:44.227Z,48.70
2017-07-27T13:44:12.965Z,49.10
2017-07-27T13:46:41.003Z,49.10
2017-07-27T13:49:09.106Z,49.50
2017-07-27T13:51:37.110Z,48.80
2017-07-27T13:54:05.162Z,49.80
2017-07-27T13:56:33.146Z,50.30
2017-07-27T13:59:01.211Z,47.50
2017-07-27T14:01:29.231Z,47.90
2017-07-27T14:03:57.289Z,47.40
2017-07-27T14:06:25.345Z,49.30
2017-07-27T14:08:54.113Z,49.40
2017-07-27T14:11:22.130Z,49.40
2017-07-27T14:13:50.174Z,46.80
2017-07-27T14:16:18.277Z,48.20
2017-07-27T14:18:46.311Z,49.90
2017-07-27T14:21:15.078Z,49.50
2017-07-27T14:23:43.154Z,49.10
2017-07-27T14:26:11.177Z,49.60
2017-07-27T14:28:39.186Z,49.70
2017-07-27T14:31:07.186Z,50.20
2017-07-27T14:33:35.995Z,49.60
2017-07-27T14:36:04.799Z,50.00
2017-07-27T14:38:32.802Z,50.00
2017-07-27T14:41:00.831Z,49.20
2017-07-27T14:43:28.899Z,49.10
2017-07-27T14:45:56.914Z,49.90
2017-07-27T14:48:24.979Z,51.20
2017-07-27T14:50:53.009Z,51.30
2017-07-27T14:53:21.020Z,52.10
2017-07-27T14:55:49.071Z,51.40
2017-07-27T14:58:17.894Z,51.40
2017-07-27T15:00:46.107Z,51.10
2017-07-27T15:03:14.151Z,51.40
2017-07-27T15:05:42.153Z,50.10
2017-07-27T15:08:10.179Z,51.20
2017-07-27T15:10:38.310Z,50.60
2017-07-27T15:13:06.327Z,51.20
2017-07-27T15:15:34.306Z,52.20
2017-07-27T15:18:02.337Z,50.60
2017-07-27T15:20:30.409Z,51.20
2017-07-27T15:22:58.434Z,50.20
2017-07-27T15:25:26.447Z,49.60
2017-07-27T15:27:54.675Z,50.00
2017-07-27T15:30:23.446Z,50.80
2017-07-27T15:32:51.468Z,50.60
2017-07-27T15:35:19.516Z,49.30
2017-07-27T15:37:47.549Z,49.70
2017-07-27T15:40:15.629Z,49.50
2017-07-27T15:42:43.638Z,49.40
2017-07-27T15:45:11.644Z,49.80
2017-07-27T15:47:39.692Z,48.80
2017-07-27T15:50:07.784Z,49.30
2017-07-27T15:52:36.507Z,50.00
2017-07-27T15:55:04.568Z,50.00
2017-07-27T15:57:32.585Z,50.10
2017-07-27T16:00:00.589Z,49.90
2017-07-27T16:02:28.638Z,51.10
2017-07-27T16:04:57.463Z,51.60
2017-07-27T16:07:25.912Z,51.60
2017-07-27T16:09:53.940Z,52.30
2017-07-27T16:12:24.805Z,51.60
2017-07-27T16:14:53.240Z,53.10
2017-07-27T16:17:21.235Z,50.50
2017-07-27T16:19:49.295Z,51.60
2017-07-27T16:22:17.382Z,51.60
2017-07-27T16:24:45.813Z,51.50
2017-07-27T16:27:14.575Z,51.70
2017-07-27T16:29:43.407Z,51.30
2017-07-27T16:32:11.471Z,51.60
2017-07-27T16:34:39.522Z,52.00
2017-07-27T16:37:07.541Z,51.90
2017-07-27T16:39:35.571Z,52.30
2017-07-27T16:42:03.636Z,52.20
2017-07-27T16:44:32.405Z,51.40
2017-07-27T16:47:00.443Z,51.30
2017-07-27T16:49:28.464Z,50.90
2017-07-27T16:51:57.254Z,52.10
2017-07-27T16:54:25.295Z,52.00
2017-07-27T16:56:53.317Z,53.00
2017-07-27T16:59:21.371Z,52.20
2017-07-27T17:01:50.155Z,53.30
2017-07-27T17:04:18.931Z,52.70
2017-07-27T17:06:46.930Z,52.70
2017-07-27T17:09:15.447Z,52.00
2017-07-27T17:11:43.443Z,51.80
2017-07-27T17:14:11.450Z,51.80
2017-07-27T17:16:41.295Z,52.10
2017-07-27T17:19:09.285Z,52.30
2017-07-27T17:21:37.315Z,51.90
2017-07-27T17:24:05.368Z,51.50
2017-07-27T17:26:33.420Z,52.10
2017-07-27T17:29:01.464Z,52.50
2017-07-27T17:31:29.477Z,52.70
2017-07-27T17:33:58.278Z,54.00
2017-07-27T17:36:27.094Z,54.80
2017-07-27T17:38:55.109Z,54.80
2017-07-27T17:41:23.210Z,53.20
2017-07-27T17:43:52.010Z,54.30
2017-07-27T17:46:20.793Z,54.30
2017-07-27T17:48:48.857Z,54.30
2017-07-27T17:51:17.624Z,53.80
2017-07-27T17:53:45.648Z,54.10
2017-07-27T17:56:13.663Z,53.90
2017-07-27T17:58:41.686Z,53.80
2017-07-27T18:01:09.698Z,53.90
2017-07-27T18:03:37.729Z,54.10
2017-07-27T18:06:06.510Z,54.40
2017-07-27T18:08:34.681Z,54.40
2017-07-27T18:11:02.739Z,55.00
2017-07-27T18:13:31.538Z,55.70
2017-07-27T18:16:00.349Z,55.10
2017-07-27T18:18:28.350Z,55.10
2017-07-27T18:20:56.369Z,56.00
2017-07-27T18:23:24.421Z,54.80
2017-07-27T18:25:53.173Z,56.20
2017-07-27T18:28:21.233Z,56.10
2017-07-27T18:30:49.228Z,54.80
2017-07-27T18:33:17.266Z,55.20
2017-07-27T18:35:45.302Z,54.90
2017-07-27T18:38:14.128Z,55.40
2017-07-27T18:40:42.138Z,55.40
2017-07-27T18:43:10.181Z,55.40
2017-07-27T18:45:38.234Z,55.10
2017-07-27T18:48:07.024Z,55.50
2017-07-27T18:50:35.924Z,55.60
2017-07-27T18:53:03.968Z,55.60
2017-07-27T18:55:32.769Z,55.70
2017-07-27T18:58:01.575Z,55.40
2017-07-27T19:00:29.596Z,55.40
2017-07-27T19:02:57.644Z,55.20
2017-07-27T19:05:26.709Z,56.20
2017-07-27T19:07:54.994Z,56.20
2017-07-27T19:10:23.264Z,56.30
2017-07-27T19:12:51.502Z,55.60
2017-07-27T19:15:19.790Z,55.80
2017-07-27T19:17:48.069Z,56.00
2017-07-27T19:20:17.998Z,56.90
2017-07-27T19:22:46.306Z,56.30
2017-07-27T19:25:15.368Z,55.80
2017-07-27T19:27:43.670Z,55.80
2017-07-27T19:30:11.943Z,57.20
2017-07-27T19:32:40.270Z,57.60
2017-07-27T19:35:09.391Z,57.10
2017-07-27T19:37:37.646Z,57.00
2017-07-27T19:40:05.937Z,57.30
2017-07-27T19:42:34.191Z,57.80
2017-07-27T19:45:02.512Z,57.50
2017-07-27T19:47:30.779Z,59.30
2017-07-27T19:49:59.054Z,59.70
2017-07-27T19:52:27.387Z,59.20
2017-07-27T19:54:55.725Z,62.00
2017-07-27T19:57:23.948Z,61.80
2017-07-27T19:59:53.003Z,63.00
2017-07-27T20:02:21.280Z,62.90
2017-07-27T20:04:49.580Z,63.40
2017-07-27T20:07:18.644Z,65.60
2017-07-27T20:09:46.915Z,65.60
2017-07-27T20:12:15.169Z,65.60
2017-07-27T20:14:43.461Z,66.50
2017-07-27T20:17:11.710Z,67.80
2017-07-27T20:19:40.752Z,68.30
2017-07-27T20:22:09.018Z,68.10
2017-07-27T20:24:37.312Z,68.60
2017-07-27T20:27:05.632Z,68.60
2017-07-27T20:29:34.652Z,66.50
2017-07-27T20:32:02.936Z,66.50
2017-07-27T20:34:31.919Z,67.90
2017-07-27T20:37:00.257Z,67.90
2017-07-27T20:39:28.517Z,66.90
2017-07-27T20:41:56.807Z,68.70
2017-07-27T20:44:25.069Z,69.10
2017-07-27T20:46:53.320Z,69.30
2017-07-27T20:49:21.603Z,69.60
2017-07-27T20:51:49.883Z,70.30
2017-07-27T20:54:18.528Z,70.90
2017-07-27T20:56:46.769Z,71.20
2017-07-27T20:59:25.205Z,71.60
2017-07-27T21:01:54.207Z,72.40
2017-07-27T21:04:23.658Z,72.50
2017-07-27T21:06:51.949Z,72.50
2017-07-27T21:09:20.202Z,72.70
2017-07-27T21:11:48.470Z,72.80
2017-07-27T21:14:16.772Z,73.20
2017-07-27T21:16:45.032Z,73.70
2017-07-27T21:19:14.064Z,73.90
2017-07-27T21:21:43.912Z,73.90
2017-07-27T21:24:12.991Z,75.00
2017-07-27T21:26:41.245Z,75.00
2017-07-27T21:29:10.370Z,75.10
2017-07-27T21:31:39.395Z,75.60
2017-07-27T21:34:07.672Z,75.50
2017-07-27T21:36:35.923Z,75.60
2017-07-27T21:39:04.949Z,76.50
2017-07-27T21:41:33.996Z,75.80
2017-07-27T21:44:02.239Z,75.80
2017-07-27T21:46:30.493Z,76.00
2017-07-27T21:48:58.735Z,76.80
2017-07-27T21:51:27.224Z,76.80
2017-07-27T21:53:55.465Z,77.10
2017-07-27T21:56:23.732Z,77.20
2017-07-27T21:58:51.971Z,77.40
2017-07-27T22:01:20.599Z,77.60
2017-07-27T22:03:48.831Z,77.50
2017-07-27T22:06:17.126Z,77.60
2017-07-27T22:08:45.376Z,77.00
2017-07-27T22:11:14.479Z,77.00
2017-07-27T22:13:43.509Z,77.20
2017-07-27T22:16:11.750Z,77.10
2017-07-27T22:18:40.788Z,77.50
2017-07-27T22:21:09.011Z,77.50
2017-07-27T22:23:38.050Z,77.30
2017-07-27T22:26:06.313Z,76.70
2017-07-27T22:28:34.574Z,76.60
2017-07-27T22:31:03.604Z,77.40
2017-07-27T22:33:31.927Z,77.40
2017-07-27T22:36:00.145Z,77.20
2017-07-27T22:38:28.410Z,77.70
2017-07-27T22:40:56.724Z,77.50
2017-07-27T22:43:24.979Z,77.50
2017-07-27T22:45:53.255Z,77.80
2017-07-27T22:48:21.545Z,77.70
2017-07-27T22:50:49.770Z,77.80
2017-07-27T22:53:18.792Z,78.00
2017-07-27T22:55:47.066Z,78.00
2017-07-27T22:58:15.313Z,78.30
2017-07-27T23:00:44.367Z,78.10
2017-07-27T23:03:12.624Z,78.00
2017-07-27T23:05:40.911Z,78.10
2017-07-27T23:08:09.182Z,78.70
2017-07-27T23:10:37.421Z,78.50
2017-07-27T23:13:06.422Z,78.60
2017-07-27T23:15:34.767Z,78.50
2017-07-27T23:18:03.016Z,78.80
2017-07-27T23:20:31.272Z,78.90
2017-07-27T23:22:59.518Z,78.90
2017-07-27T23:25:27.769Z,78.70
2017-07-27T23:27:56.071Z,79.30
2017-07-27T23:30:24.326Z,79.40
2017-07-27T23:32:52.592Z,79.80
2017-07-27T23:35:20.820Z,79.90
2017-07-27T23:37:49.834Z,79.90
2017-07-27T23:40:18.063Z,79.80
2017-07-27T23:42:46.324Z,79.90
2017-07-27T23:45:14.588Z,80.00
2017-07-27T23:47:42.841Z,80.00
2017-07-27T23:50:11.157Z,80.20
2017-07-27T23:52:39.417Z,80.10
2017-07-27T23:55:07.726Z,80.30
2017-07-27T23:57:35.996Z,80.30
